sensor_id;sensor_type;location;lat;lon;timestamp;pressure;altitude;pressure_sealevel;temperature
41940;BMP180;23057;48.554;14.454;2023-03-14T00:01:47;92055.00;;;13.70
41940;BMP180;23057;48.554;14.454;2023-03-14T00:04:19;92068.00;;;13.70
41940;BMP180;23057;48.554;14.454;2023-03-14T00:06:49;92057.00;;;13.70
41940;BMP180;23057;48.554;14.454;2023-03-14T00:09:20;92042.00;;;13.60
41940;BMP180;23057;48.554;14.454;2023-03-14T00:11:52;92041.00;;;13.50
41940;BMP180;23057;48.554;14.454;2023-03-14T00:14:24;92048.00;;;13.50
41940;BMP180;23057;48.554;14.454;2023-03-14T00:16:54;92050.00;;;13.50
41940;BMP180;23057;48.554;14.454;2023-03-14T00:19:25;92064.00;;;13.50
41940;BMP180;23057;48.554;14.454;2023-03-14T00:21:56;92075.00;;;13.50
41940;BMP180;23057;48.554;14.454;2023-03-14T00:24:26;92083.00;;;13.40
41940;BMP180;23057;48.554;14.454;2023-03-14T00:26:57;92079.00;;;13.40
41940;BMP180;23057;48.554;14.454;2023-03-14T00:29:28;92081.00;;;13.40
41940;BMP180;23057;48.554;14.454;2023-03-14T00:31:59;92090.00;;;13.50
41940;BMP180;23057;48.554;14.454;2023-03-14T00:34:30;92095.00;;;13.50
41940;BMP180;23057;48.554;14.454;2023-03-14T00:37:01;92092.00;;;13.50
41940;BMP180;23057;48.554;14.454;2023-03-14T00:39:32;92089.00;;;13.40
41940;BMP180;23057;48.554;14.454;2023-03-14T00:42:03;92086.00;;;13.40
41940;BMP180;23057;48.554;14.454;2023-03-14T00:44:34;92098.00;;;13.40
41940;BMP180;23057;48.554;14.454;2023-03-14T00:47:05;92101.00;;;13.40
41940;BMP180;23057;48.554;14.454;2023-03-14T00:49:36;92111.00;;;13.40
41940;BMP180;23057;48.554;14.454;2023-03-14T00:52:07;92111.00;;;13.30
41940;BMP180;23057;48.554;14.454;2023-03-14T00:54:38;92109.00;;;13.20
41940;BMP180;23057;48.554;14.454;2023-03-14T00:57:09;92117.00;;;13.10
41940;BMP180;23057;48.554;14.454;2023-03-14T00:59:40;92120.00;;;13.00
41940;BMP180;23057;48.554;14.454;2023-03-14T01:02:10;92118.00;;;12.90
41940;BMP180;23057;48.554;14.454;2023-03-14T01:04:41;92132.00;;;12.80
41940;BMP180;23057;48.554;14.454;2023-03-14T01:07:13;92125.00;;;12.80
41940;BMP180;23057;48.554;14.454;2023-03-14T01:09:44;92120.00;;;12.90
41940;BMP180;23057;48.554;14.454;2023-03-14T01:12:15;92128.00;;;13.00
41940;BMP180;23057;48.554;14.454;2023-03-14T01:14:45;92126.00;;;13.10
41940;BMP180;23057;48.554;14.454;2023-03-14T01:17:16;92133.00;;;13.20
41940;BMP180;23057;48.554;14.454;2023-03-14T01:19:47;92120.00;;;13.20
41940;BMP180;23057;48.554;14.454;2023-03-14T01:22:17;92115.00;;;13.20
41940;BMP180;23057;48.554;14.454;2023-03-14T01:24:48;92120.00;;;13.20
41940;BMP180;23057;48.554;14.454;2023-03-14T01:27:19;92105.00;;;13.20
41940;BMP180;23057;48.554;14.454;2023-03-14T01:29:50;92102.00;;;13.20
41940;BMP180;23057;48.554;14.454;2023-03-14T01:32:21;92109.00;;;13.20
41940;BMP180;23057;48.554;14.454;2023-03-14T01:34:52;92116.00;;;13.10
41940;BMP180;23057;48.554;14.454;2023-03-14T01:37:23;92120.00;;;13.00
41940;BMP180;23057;48.554;14.454;2023-03-14T01:39:53;92121.00;;;12.90
41940;BMP180;23057;48.554;14.454;2023-03-14T01:42:24;92110.00;;;12.90
41940;BMP180;23057;48.554;14.454;2023-03-14T01:44:57;92111.00;;;12.90
41940;BMP180;23057;48.554;14.454;2023-03-14T01:47:30;92110.00;;;13.00
41940;BMP180;23057;48.554;14.454;2023-03-14T01:50:09;92088.00;;;13.10
41940;BMP180;23057;48.554;14.454;2023-03-14T01:52:45;92093.00;;;13.20
41940;BMP180;23057;48.554;14.454;2023-03-14T01:55:23;92094.00;;;13.30
41940;BMP180;23057;48.554;14.454;2023-03-14T01:58:03;92079.00;;;13.40
41940;BMP180;23057;48.554;14.454;2023-03-14T02:00:35;92087.00;;;13.30
41940;BMP180;23057;48.554;14.454;2023-03-14T02:03:10;92087.00;;;13.30
41940;BMP180;23057;48.554;14.454;2023-03-14T02:05:44;92107.00;;;13.30
41940;BMP180;23057;48.554;14.454;2023-03-14T02:08:19;92117.00;;;13.20
41940;BMP180;23057;48.554;14.454;2023-03-14T02:10:51;92131.00;;;13.10
41940;BMP180;23057;48.554;14.454;2023-03-14T02:13:22;92137.00;;;13.00
41940;BMP180;23057;48.554;14.454;2023-03-14T02:15:53;92130.00;;;13.00
41940;BMP180;23057;48.554;14.454;2023-03-14T02:18:24;92115.00;;;13.10
41940;BMP180;23057;48.554;14.454;2023-03-14T02:21:05;92125.00;;;13.20
41940;BMP180;23057;48.554;14.454;2023-03-14T02:23:58;92117.00;;;13.10
41940;BMP180;23057;48.554;14.454;2023-03-14T02:26:40;92101.00;;;13.10
41940;BMP180;23057;48.554;14.454;2023-03-14T02:29:36;92109.00;;;13.10
41940;BMP180;23057;48.554;14.454;2023-03-14T02:32:12;92101.00;;;13.10
41940;BMP180;23057;48.554;14.454;2023-03-14T02:34:49;92096.00;;;13.10
41940;BMP180;23057;48.554;14.454;2023-03-14T02:37:37;92087.00;;;13.10
41940;BMP180;23057;48.554;14.454;2023-03-14T02:40:12;92089.00;;;13.10
41940;BMP180;23057;48.554;14.454;2023-03-14T02:42:42;92101.00;;;13.20
41940;BMP180;23057;48.554;14.454;2023-03-14T02:47:49;92110.00;;;13.20
41940;BMP180;23057;48.554;14.454;2023-03-14T02:50:29;92102.00;;;13.20
41940;BMP180;23057;48.554;14.454;2023-03-14T02:53:03;92120.00;;;13.20
41940;BMP180;23057;48.554;14.454;2023-03-14T02:55:34;92138.00;;;13.20
41940;BMP180;23057;48.554;14.454;2023-03-14T02:58:05;92136.00;;;13.20
41940;BMP180;23057;48.554;14.454;2023-03-14T03:00:36;92151.00;;;13.20
41940;BMP180;23057;48.554;14.454;2023-03-14T03:03:06;92141.00;;;13.30
41940;BMP180;23057;48.554;14.454;2023-03-14T03:05:37;92147.00;;;13.20
41940;BMP180;23057;48.554;14.454;2023-03-14T03:08:09;92167.00;;;13.20
41940;BMP180;23057;48.554;14.454;2023-03-14T03:10:40;92172.00;;;13.20
41940;BMP180;23057;48.554;14.454;2023-03-14T03:13:10;92156.00;;;13.20
41940;BMP180;23057;48.554;14.454;2023-03-14T03:15:42;92152.00;;;13.20
41940;BMP180;23057;48.554;14.454;2023-03-14T03:18:13;92122.00;;;13.30
41940;BMP180;23057;48.554;14.454;2023-03-14T03:20:43;92129.00;;;13.30
41940;BMP180;23057;48.554;14.454;2023-03-14T03:23:14;92125.00;;;13.30
41940;BMP180;23057;48.554;14.454;2023-03-14T03:25:49;92112.00;;;13.30
41940;BMP180;23057;48.554;14.454;2023-03-14T03:28:21;92100.00;;;13.40
41940;BMP180;23057;48.554;14.454;2023-03-14T03:30:52;92084.00;;;13.60
41940;BMP180;23057;48.554;14.454;2023-03-14T03:33:23;92093.00;;;13.80
41940;BMP180;23057;48.554;14.454;2023-03-14T03:35:55;92109.00;;;14.00
41940;BMP180;23057;48.554;14.454;2023-03-14T03:38:25;92099.00;;;14.20
41940;BMP180;23057;48.554;14.454;2023-03-14T03:40:56;92108.00;;;14.30
41940;BMP180;23057;48.554;14.454;2023-03-14T03:43:27;92128.00;;;14.40
41940;BMP180;23057;48.554;14.454;2023-03-14T03:45:58;92119.00;;;14.40
41940;BMP180;23057;48.554;14.454;2023-03-14T03:48:28;92135.00;;;14.50
41940;BMP180;23057;48.554;14.454;2023-03-14T03:50:59;92153.00;;;14.60
41940;BMP180;23057;48.554;14.454;2023-03-14T03:53:30;92157.00;;;14.70
41940;BMP180;23057;48.554;14.454;2023-03-14T03:56:00;92162.00;;;14.80
41940;BMP180;23057;48.554;14.454;2023-03-14T03:58:31;92159.00;;;14.90
41940;BMP180;23057;48.554;14.454;2023-03-14T04:01:02;92153.00;;;15.00
41940;BMP180;23057;48.554;14.454;2023-03-14T04:03:33;92146.00;;;15.00
41940;BMP180;23057;48.554;14.454;2023-03-14T04:06:10;92150.00;;;15.10
41940;BMP180;23057;48.554;14.454;2023-03-14T04:08:42;92138.00;;;15.10
41940;BMP180;23057;48.554;14.454;2023-03-14T04:11:13;92144.00;;;15.20
41940;BMP180;23057;48.554;14.454;2023-03-14T04:13:44;92141.00;;;15.30
41940;BMP180;23057;48.554;14.454;2023-03-14T04:16:23;92146.00;;;15.30
41940;BMP180;23057;48.554;14.454;2023-03-14T04:18:55;92146.00;;;15.30
41940;BMP180;23057;48.554;14.454;2023-03-14T04:21:26;92135.00;;;15.40
41940;BMP180;23057;48.554;14.454;2023-03-14T04:23:57;92160.00;;;15.40
41940;BMP180;23057;48.554;14.454;2023-03-14T04:26:27;92165.00;;;15.40
41940;BMP180;23057;48.554;14.454;2023-03-14T04:28:58;92159.00;;;15.40
41940;BMP180;23057;48.554;14.454;2023-03-14T04:31:29;92158.00;;;15.40
41940;BMP180;23057;48.554;14.454;2023-03-14T04:34:00;92151.00;;;15.40
41940;BMP180;23057;48.554;14.454;2023-03-14T04:36:30;92153.00;;;15.40
41940;BMP180;23057;48.554;14.454;2023-03-14T04:39:01;92154.00;;;15.40
41940;BMP180;23057;48.554;14.454;2023-03-14T04:41:32;92157.00;;;15.30
41940;BMP180;23057;48.554;14.454;2023-03-14T04:44:03;92149.00;;;15.30
41940;BMP180;23057;48.554;14.454;2023-03-14T04:46:33;92155.00;;;15.30
41940;BMP180;23057;48.554;14.454;2023-03-14T04:49:04;92153.00;;;15.30
41940;BMP180;23057;48.554;14.454;2023-03-14T04:51:35;92151.00;;;15.30
41940;BMP180;23057;48.554;14.454;2023-03-14T04:54:07;92157.00;;;15.30
41940;BMP180;23057;48.554;14.454;2023-03-14T04:56:37;92160.00;;;15.30
41940;BMP180;23057;48.554;14.454;2023-03-14T04:59:08;92154.00;;;15.20
41940;BMP180;23057;48.554;14.454;2023-03-14T05:01:39;92163.00;;;15.20
41940;BMP180;23057;48.554;14.454;2023-03-14T05:04:11;92159.00;;;15.20
41940;BMP180;23057;48.554;14.454;2023-03-14T05:06:42;92150.00;;;15.10
41940;BMP180;23057;48.554;14.454;2023-03-14T05:09:12;92154.00;;;15.10
41940;BMP180;23057;48.554;14.454;2023-03-14T05:11:43;92148.00;;;15.20
41940;BMP180;23057;48.554;14.454;2023-03-14T05:14:14;92139.00;;;15.20
41940;BMP180;23057;48.554;14.454;2023-03-14T05:16:45;92151.00;;;15.20
41940;BMP180;23057;48.554;14.454;2023-03-14T05:19:16;92157.00;;;15.30
41940;BMP180;23057;48.554;14.454;2023-03-14T05:21:46;92165.00;;;15.30
41940;BMP180;23057;48.554;14.454;2023-03-14T05:24:17;92176.00;;;15.30
41940;BMP180;23057;48.554;14.454;2023-03-14T05:26:48;92185.00;;;15.30
41940;BMP180;23057;48.554;14.454;2023-03-14T05:29:19;92188.00;;;15.30
41940;BMP180;23057;48.554;14.454;2023-03-14T05:31:49;92187.00;;;15.20
41940;BMP180;23057;48.554;14.454;2023-03-14T05:34:20;92184.00;;;15.20
41940;BMP180;23057;48.554;14.454;2023-03-14T05:36:51;92185.00;;;15.10
41940;BMP180;23057;48.554;14.454;2023-03-14T05:39:22;92191.00;;;15.10
41940;BMP180;23057;48.554;14.454;2023-03-14T05:41:53;92193.00;;;15.00
41940;BMP180;23057;48.554;14.454;2023-03-14T05:44:26;92179.00;;;15.00
41940;BMP180;23057;48.554;14.454;2023-03-14T05:46:56;92171.00;;;14.90
41940;BMP180;23057;48.554;14.454;2023-03-14T05:49:27;92167.00;;;14.90
41940;BMP180;23057;48.554;14.454;2023-03-14T05:51:58;92177.00;;;14.90
41940;BMP180;23057;48.554;14.454;2023-03-14T05:54:29;92185.00;;;14.80
41940;BMP180;23057;48.554;14.454;2023-03-14T05:57:00;92184.00;;;14.70
41940;BMP180;23057;48.554;14.454;2023-03-14T05:59:30;92188.00;;;14.70
41940;BMP180;23057;48.554;14.454;2023-03-14T06:02:01;92175.00;;;14.70
41940;BMP180;23057;48.554;14.454;2023-03-14T06:04:32;92165.00;;;14.70
41940;BMP180;23057;48.554;14.454;2023-03-14T06:07:03;92168.00;;;14.70
41940;BMP180;23057;48.554;14.454;2023-03-14T06:09:33;92169.00;;;14.70
41940;BMP180;23057;48.554;14.454;2023-03-14T06:12:04;92165.00;;;14.60
41940;BMP180;23057;48.554;14.454;2023-03-14T06:14:35;92163.00;;;14.60
41940;BMP180;23057;48.554;14.454;2023-03-14T06:17:06;92178.00;;;14.60
41940;BMP180;23057;48.554;14.454;2023-03-14T06:19:37;92176.00;;;14.70
41940;BMP180;23057;48.554;14.454;2023-03-14T06:22:07;92173.00;;;14.70
41940;BMP180;23057;48.554;14.454;2023-03-14T06:24:38;92177.00;;;14.70
41940;BMP180;23057;48.554;14.454;2023-03-14T06:27:09;92170.00;;;14.70
41940;BMP180;23057;48.554;14.454;2023-03-14T06:29:40;92171.00;;;14.60
41940;BMP180;23057;48.554;14.454;2023-03-14T06:32:11;92168.00;;;14.60
41940;BMP180;23057;48.554;14.454;2023-03-14T06:34:41;92163.00;;;14.60
41940;BMP180;23057;48.554;14.454;2023-03-14T06:37:12;92153.00;;;14.60
41940;BMP180;23057;48.554;14.454;2023-03-14T06:39:43;92154.00;;;14.70
41940;BMP180;23057;48.554;14.454;2023-03-14T06:42:14;92140.00;;;14.60
41940;BMP180;23057;48.554;14.454;2023-03-14T06:44:45;92133.00;;;14.70
41940;BMP180;23057;48.554;14.454;2023-03-14T06:47:16;92129.00;;;14.60
41940;BMP180;23057;48.554;14.454;2023-03-14T06:49:47;92125.00;;;14.60
41940;BMP180;23057;48.554;14.454;2023-03-14T06:52:18;92119.00;;;14.60
41940;BMP180;23057;48.554;14.454;2023-03-14T06:54:49;92112.00;;;14.60
41940;BMP180;23057;48.554;14.454;2023-03-14T06:57:19;92111.00;;;14.60
41940;BMP180;23057;48.554;14.454;2023-03-14T06:59:50;92115.00;;;14.60
41940;BMP180;23057;48.554;14.454;2023-03-14T07:02:22;92106.00;;;14.60
41940;BMP180;23057;48.554;14.454;2023-03-14T07:04:53;92112.00;;;14.70
41940;BMP180;23057;48.554;14.454;2023-03-14T07:07:24;92110.00;;;14.70
41940;BMP180;23057;48.554;14.454;2023-03-14T07:09:55;92129.00;;;14.70
41940;BMP180;23057;48.554;14.454;2023-03-14T07:12:25;92139.00;;;14.60
41940;BMP180;23057;48.554;14.454;2023-03-14T07:14:56;92127.00;;;14.60
41940;BMP180;23057;48.554;14.454;2023-03-14T07:17:27;92132.00;;;14.60
41940;BMP180;23057;48.554;14.454;2023-03-14T07:19:58;92111.00;;;14.60
41940;BMP180;23057;48.554;14.454;2023-03-14T07:22:29;92107.00;;;14.70
41940;BMP180;23057;48.554;14.454;2023-03-14T07:25:00;92104.00;;;14.70
41940;BMP180;23057;48.554;14.454;2023-03-14T07:27:31;92089.00;;;14.80
41940;BMP180;23057;48.554;14.454;2023-03-14T07:30:02;92094.00;;;14.80
41940;BMP180;23057;48.554;14.454;2023-03-14T07:32:33;92102.00;;;14.80
41940;BMP180;23057;48.554;14.454;2023-03-14T07:35:04;92108.00;;;14.80
41940;BMP180;23057;48.554;14.454;2023-03-14T07:37:35;92106.00;;;14.80
41940;BMP180;23057;48.554;14.454;2023-03-14T07:40:06;92097.00;;;14.80
41940;BMP180;23057;48.554;14.454;2023-03-14T07:42:37;92102.00;;;14.80
41940;BMP180;23057;48.554;14.454;2023-03-14T07:45:09;92114.00;;;14.80
41940;BMP180;23057;48.554;14.454;2023-03-14T07:47:41;92115.00;;;14.90
41940;BMP180;23057;48.554;14.454;2023-03-14T07:50:12;92106.00;;;14.90
41940;BMP180;23057;48.554;14.454;2023-03-14T07:52:43;92107.00;;;14.90
41940;BMP180;23057;48.554;14.454;2023-03-14T07:55:13;92110.00;;;14.90
41940;BMP180;23057;48.554;14.454;2023-03-14T07:57:44;92119.00;;;14.90
41940;BMP180;23057;48.554;14.454;2023-03-14T08:00:15;92120.00;;;14.90
41940;BMP180;23057;48.554;14.454;2023-03-14T08:02:46;92120.00;;;14.90
41940;BMP180;23057;48.554;14.454;2023-03-14T08:05:17;92126.00;;;14.90
41940;BMP180;23057;48.554;14.454;2023-03-14T08:07:48;92116.00;;;15.00
41940;BMP180;23057;48.554;14.454;2023-03-14T08:10:19;92120.00;;;14.90
41940;BMP180;23057;48.554;14.454;2023-03-14T08:12:57;92115.00;;;15.00
41940;BMP180;23057;48.554;14.454;2023-03-14T08:15:30;92127.00;;;15.00
41940;BMP180;23057;48.554;14.454;2023-03-14T08:18:01;92127.00;;;15.00
41940;BMP180;23057;48.554;14.454;2023-03-14T08:20:32;92121.00;;;15.00
41940;BMP180;23057;48.554;14.454;2023-03-14T08:23:03;92118.00;;;15.00
41940;BMP180;23057;48.554;14.454;2023-03-14T08:25:34;92114.00;;;15.00
41940;BMP180;23057;48.554;14.454;2023-03-14T08:28:05;92097.00;;;15.00
41940;BMP180;23057;48.554;14.454;2023-03-14T08:30:35;92105.00;;;15.10
41940;BMP180;23057;48.554;14.454;2023-03-14T08:33:06;92109.00;;;15.20
41940;BMP180;23057;48.554;14.454;2023-03-14T08:35:37;92119.00;;;15.20
41940;BMP180;23057;48.554;14.454;2023-03-14T08:38:09;92120.00;;;15.20
41940;BMP180;23057;48.554;14.454;2023-03-14T08:40:39;92116.00;;;15.30
41940;BMP180;23057;48.554;14.454;2023-03-14T08:43:10;92101.00;;;15.30
41940;BMP180;23057;48.554;14.454;2023-03-14T08:45:41;92115.00;;;15.40
41940;BMP180;23057;48.554;14.454;2023-03-14T08:48:12;92112.00;;;15.40
41940;BMP180;23057;48.554;14.454;2023-03-14T08:50:42;92117.00;;;15.40
41940;BMP180;23057;48.554;14.454;2023-03-14T08:53:14;92119.00;;;15.30
41940;BMP180;23057;48.554;14.454;2023-03-14T08:55:44;92121.00;;;15.30
41940;BMP180;23057;48.554;14.454;2023-03-14T08:58:15;92130.00;;;15.30
41940;BMP180;23057;48.554;14.454;2023-03-14T09:00:46;92115.00;;;15.30
41940;BMP180;23057;48.554;14.454;2023-03-14T09:03:16;92128.00;;;15.40
41940;BMP180;23057;48.554;14.454;2023-03-14T09:05:47;92117.00;;;15.40
41940;BMP180;23057;48.554;14.454;2023-03-14T09:08:18;92119.00;;;15.40
41940;BMP180;23057;48.554;14.454;2023-03-14T09:10:49;92145.00;;;15.50
41940;BMP180;23057;48.554;14.454;2023-03-14T09:13:20;92153.00;;;15.40
41940;BMP180;23057;48.554;14.454;2023-03-14T09:15:52;92156.00;;;15.40
41940;BMP180;23057;48.554;14.454;2023-03-14T09:18:23;92160.00;;;15.40
41940;BMP180;23057;48.554;14.454;2023-03-14T09:20:55;92168.00;;;15.30
41940;BMP180;23057;48.554;14.454;2023-03-14T09:23:27;92175.00;;;15.30
41940;BMP180;23057;48.554;14.454;2023-03-14T09:25:58;92180.00;;;15.40
41940;BMP180;23057;48.554;14.454;2023-03-14T09:28:30;92167.00;;;15.30
41940;BMP180;23057;48.554;14.454;2023-03-14T09:31:08;92170.00;;;15.30
41940;BMP180;23057;48.554;14.454;2023-03-14T09:33:40;92164.00;;;15.30
41940;BMP180;23057;48.554;14.454;2023-03-14T09:36:11;92158.00;;;15.20
41940;BMP180;23057;48.554;14.454;2023-03-14T09:38:42;92164.00;;;15.20
41940;BMP180;23057;48.554;14.454;2023-03-14T09:41:17;92158.00;;;15.30
41940;BMP180;23057;48.554;14.454;2023-03-14T09:46:40;92154.00;;;15.20
41940;BMP180;23057;48.554;14.454;2023-03-14T09:49:22;92150.00;;;15.20
41940;BMP180;23057;48.554;14.454;2023-03-14T09:52:00;92145.00;;;15.20
41940;BMP180;23057;48.554;14.454;2023-03-14T09:57:14;92146.00;;;15.20
41940;BMP180;23057;48.554;14.454;2023-03-14T09:59:48;92142.00;;;15.20
41940;BMP180;23057;48.554;14.454;2023-03-14T10:02:25;92145.00;;;15.20
41940;BMP180;23057;48.554;14.454;2023-03-14T10:05:07;92146.00;;;15.30
41940;BMP180;23057;48.554;14.454;2023-03-14T10:07:46;92147.00;;;15.30
41940;BMP180;23057;48.554;14.454;2023-03-14T10:10:20;92149.00;;;15.40
41940;BMP180;23057;48.554;14.454;2023-03-14T10:13:00;92154.00;;;15.40
41940;BMP180;23057;48.554;14.454;2023-03-14T10:15:42;92173.00;;;15.40
41940;BMP180;23057;48.554;14.454;2023-03-14T10:18:18;92158.00;;;15.40
41940;BMP180;23057;48.554;14.454;2023-03-14T10:21:00;92159.00;;;15.50
41940;BMP180;23057;48.554;14.454;2023-03-14T10:23:34;92153.00;;;15.50
41940;BMP180;23057;48.554;14.454;2023-03-14T10:26:16;92160.00;;;15.50
41940;BMP180;23057;48.554;14.454;2023-03-14T10:28:53;92165.00;;;15.60
41940;BMP180;23057;48.554;14.454;2023-03-14T10:31:59;92160.00;;;15.60
41940;BMP180;23057;48.554;14.454;2023-03-14T10:34:37;92157.00;;;15.60
41940;BMP180;23057;48.554;14.454;2023-03-14T10:37:21;92155.00;;;15.50
41940;BMP180;23057;48.554;14.454;2023-03-14T10:40:00;92157.00;;;15.50
41940;BMP180;23057;48.554;14.454;2023-03-14T10:42:41;92171.00;;;15.40
41940;BMP180;23057;48.554;14.454;2023-03-14T10:45:38;92177.00;;;15.30
41940;BMP180;23057;48.554;14.454;2023-03-14T10:51:10;92170.00;;;15.10
41940;BMP180;23057;48.554;14.454;2023-03-14T10:54:12;92178.00;;;15.10
41940;BMP180;23057;48.554;14.454;2023-03-14T10:56:45;92179.00;;;15.10
41940;BMP180;23057;48.554;14.454;2023-03-14T10:59:29;92178.00;;;15.10
41940;BMP180;23057;48.554;14.454;2023-03-14T11:05:31;92176.00;;;15.10
41940;BMP180;23057;48.554;14.454;2023-03-14T11:08:23;92174.00;;;15.00
41940;BMP180;23057;48.554;14.454;2023-03-14T11:11:15;92181.00;;;14.90
41940;BMP180;23057;48.554;14.454;2023-03-14T11:13:57;92175.00;;;14.90
41940;BMP180;23057;48.554;14.454;2023-03-14T11:19:46;92179.00;;;14.90
41940;BMP180;23057;48.554;14.454;2023-03-14T11:22:28;92183.00;;;15.00
41940;BMP180;23057;48.554;14.454;2023-03-14T11:25:18;92178.00;;;15.10
41940;BMP180;23057;48.554;14.454;2023-03-14T11:33:29;92166.00;;;15.20
41940;BMP180;23057;48.554;14.454;2023-03-14T11:36:11;92163.00;;;15.30
41940;BMP180;23057;48.554;14.454;2023-03-14T11:38:52;92166.00;;;15.40
41940;BMP180;23057;48.554;14.454;2023-03-14T11:41:31;92171.00;;;15.40
41940;BMP180;23057;48.554;14.454;2023-03-14T11:44:26;92169.00;;;15.50
41940;BMP180;23057;48.554;14.454;2023-03-14T11:47:20;92161.00;;;15.50
41940;BMP180;23057;48.554;14.454;2023-03-14T11:53:13;92153.00;;;15.50
41940;BMP180;23057;48.554;14.454;2023-03-14T11:55:48;92143.00;;;15.60
41940;BMP180;23057;48.554;14.454;2023-03-14T11:58:24;92154.00;;;15.70
41940;BMP180;23057;48.554;14.454;2023-03-14T12:01:02;92151.00;;;15.80
41940;BMP180;23057;48.554;14.454;2023-03-14T12:03:46;92148.00;;;15.90
41940;BMP180;23057;48.554;14.454;2023-03-14T12:06:55;92156.00;;;15.80
41940;BMP180;23057;48.554;14.454;2023-03-14T12:09:30;92153.00;;;15.80
41940;BMP180;23057;48.554;14.454;2023-03-14T12:12:03;92148.00;;;15.90
41940;BMP180;23057;48.554;14.454;2023-03-14T12:14:37;92159.00;;;15.80
41940;BMP180;23057;48.554;14.454;2023-03-14T12:17:20;92160.00;;;15.70
41940;BMP180;23057;48.554;14.454;2023-03-14T12:20:03;92156.00;;;15.70
41940;BMP180;23057;48.554;14.454;2023-03-14T12:22:43;92148.00;;;15.70
41940;BMP180;23057;48.554;14.454;2023-03-14T12:30:29;92145.00;;;15.60
41940;BMP180;23057;48.554;14.454;2023-03-14T12:35:49;92134.00;;;15.70
41940;BMP180;23057;48.554;14.454;2023-03-14T12:38:45;92138.00;;;15.60
41940;BMP180;23057;48.554;14.454;2023-03-14T12:41:47;92129.00;;;15.50
41940;BMP180;23057;48.554;14.454;2023-03-14T12:49:53;92136.00;;;15.30
41940;BMP180;23057;48.554;14.454;2023-03-14T12:52:46;92143.00;;;15.30
41940;BMP180;23057;48.554;14.454;2023-03-14T12:55:24;92138.00;;;15.30
41940;BMP180;23057;48.554;14.454;2023-03-14T13:01:03;92136.00;;;15.30
41940;BMP180;23057;48.554;14.454;2023-03-14T13:03:52;92137.00;;;15.30
41940;BMP180;23057;48.554;14.454;2023-03-14T13:06:53;92108.00;;;15.40
41940;BMP180;23057;48.554;14.454;2023-03-14T13:12:10;92087.00;;;15.30
41940;BMP180;23057;48.554;14.454;2023-03-14T13:14:45;92105.00;;;15.30
41940;BMP180;23057;48.554;14.454;2023-03-14T13:17:26;92091.00;;;15.30
41940;BMP180;23057;48.554;14.454;2023-03-14T13:20:05;92086.00;;;15.30
41940;BMP180;23057;48.554;14.454;2023-03-14T13:22:48;92102.00;;;15.20
41940;BMP180;23057;48.554;14.454;2023-03-14T13:25:19;92106.00;;;15.30
41940;BMP180;23057;48.554;14.454;2023-03-14T13:27:53;92099.00;;;15.30
41940;BMP180;23057;48.554;14.454;2023-03-14T13:30:27;92084.00;;;15.30
41940;BMP180;23057;48.554;14.454;2023-03-14T13:33:03;92089.00;;;15.40
41940;BMP180;23057;48.554;14.454;2023-03-14T13:35:46;92080.00;;;15.50
41940;BMP180;23057;48.554;14.454;2023-03-14T13:38:22;92083.00;;;15.60
41940;BMP180;23057;48.554;14.454;2023-03-14T13:40:57;92081.00;;;15.80
41940;BMP180;23057;48.554;14.454;2023-03-14T13:43:36;92076.00;;;15.80
41940;BMP180;23057;48.554;14.454;2023-03-14T13:48:52;92093.00;;;15.90
41940;BMP180;23057;48.554;14.454;2023-03-14T13:51:26;92082.00;;;16.00
41940;BMP180;23057;48.554;14.454;2023-03-14T13:54:02;92094.00;;;16.10
41940;BMP180;23057;48.554;14.454;2023-03-14T13:56:35;92084.00;;;16.10
41940;BMP180;23057;48.554;14.454;2023-03-14T13:59:38;92087.00;;;16.10
41940;BMP180;23057;48.554;14.454;2023-03-14T14:02:13;92094.00;;;16.20
41940;BMP180;23057;48.554;14.454;2023-03-14T14:04:45;92096.00;;;16.30
41940;BMP180;23057;48.554;14.454;2023-03-14T14:07:18;92098.00;;;16.40
41940;BMP180;23057;48.554;14.454;2023-03-14T14:09:52;92097.00;;;16.40
41940;BMP180;23057;48.554;14.454;2023-03-14T14:15:26;92099.00;;;16.30
41940;BMP180;23057;48.554;14.454;2023-03-14T14:18:04;92112.00;;;16.30
41940;BMP180;23057;48.554;14.454;2023-03-14T14:20:41;92105.00;;;16.20
41940;BMP180;23057;48.554;14.454;2023-03-14T14:23:18;92097.00;;;16.10
41940;BMP180;23057;48.554;14.454;2023-03-14T14:25:56;92093.00;;;16.00
41940;BMP180;23057;48.554;14.454;2023-03-14T14:28:33;92093.00;;;16.10
41940;BMP180;23057;48.554;14.454;2023-03-14T14:33:53;92115.00;;;15.90
41940;BMP180;23057;48.554;14.454;2023-03-14T14:39:17;92101.00;;;15.90
41940;BMP180;23057;48.554;14.454;2023-03-14T14:41:51;92091.00;;;15.90
41940;BMP180;23057;48.554;14.454;2023-03-14T14:44:34;92098.00;;;15.80
41940;BMP180;23057;48.554;14.454;2023-03-14T14:47:06;92096.00;;;15.70
41940;BMP180;23057;48.554;14.454;2023-03-14T14:49:37;92081.00;;;15.70
41940;BMP180;23057;48.554;14.454;2023-03-14T14:52:15;92099.00;;;15.60
41940;BMP180;23057;48.554;14.454;2023-03-14T14:54:57;92099.00;;;15.70
41940;BMP180;23057;48.554;14.454;2023-03-14T14:57:37;92096.00;;;15.60
41940;BMP180;23057;48.554;14.454;2023-03-14T15:00:21;92094.00;;;15.50
41940;BMP180;23057;48.554;14.454;2023-03-14T15:02:58;92085.00;;;15.40
41940;BMP180;23057;48.554;14.454;2023-03-14T15:05:30;92087.00;;;15.40
41940;BMP180;23057;48.554;14.454;2023-03-14T15:08:10;92102.00;;;15.40
41940;BMP180;23057;48.554;14.454;2023-03-14T15:10:41;92093.00;;;15.40
41940;BMP180;23057;48.554;14.454;2023-03-14T15:13:12;92092.00;;;15.40
41940;BMP180;23057;48.554;14.454;2023-03-14T15:15:44;92096.00;;;15.40
41940;BMP180;23057;48.554;14.454;2023-03-14T15:18:18;92100.00;;;15.40
41940;BMP180;23057;48.554;14.454;2023-03-14T15:20:49;92096.00;;;15.30
41940;BMP180;23057;48.554;14.454;2023-03-14T15:23:21;92108.00;;;15.30
41940;BMP180;23057;48.554;14.454;2023-03-14T15:25:53;92109.00;;;15.30
41940;BMP180;23057;48.554;14.454;2023-03-14T15:28:26;92110.00;;;15.20
41940;BMP180;23057;48.554;14.454;2023-03-14T15:30:59;92103.00;;;15.10
41940;BMP180;23057;48.554;14.454;2023-03-14T15:33:29;92106.00;;;15.10